sensor_id;sensor_type;location;lat;lon;timestamp;temperature;humidity
2621;DHT22;1320;48.128;11.592;2023-05-21T00:02:07;18.30;99.90
2621;DHT22;1320;48.128;11.592;2023-05-21T00:04:37;18.30;99.90
2621;DHT22;1320;48.128;11.592;2023-05-21T00:07:05;18.20;99.90
2621;DHT22;1320;48.128;11.592;2023-05-21T00:09:31;18.20;99.90
2621;DHT22;1320;48.128;11.592;2023-05-21T00:11:56;18.20;99.90
2621;DHT22;1320;48.128;11.592;2023-05-21T00:14:22;18.10;99.90
2621;DHT22;1320;48.128;11.592;2023-05-21T00:16:48;18.10;99.90
2621;DHT22;1320;48.128;11.592;2023-05-21T00:19:13;18.10;99.90
2621;DHT22;1320;48.128;11.592;2023-05-21T00:21:39;18.00;99.90
2621;DHT22;1320;48.128;11.592;2023-05-21T00:24:05;18.00;99.90
2621;DHT22;1320;48.128;11.592;2023-05-21T00:26:31;18.00;99.90
2621;DHT22;1320;48.128;11.592;2023-05-21T00:28:57;18.00;99.90
2621;DHT22;1320;48.128;11.592;2023-05-21T00:31:22;18.00;99.90
2621;DHT22;1320;48.128;11.592;2023-05-21T00:33:48;17.90;99.90
2621;DHT22;1320;48.128;11.592;2023-05-21T00:36:14;17.90;99.90
2621;DHT22;1320;48.128;11.592;2023-05-21T00:38:41;17.80;99.90
2621;DHT22;1320;48.128;11.592;2023-05-21T00:41:09;17.80;99.90
2621;DHT22;1320;48.128;11.592;2023-05-21T00:43:35;17.80;99.90
2621;DHT22;1320;48.128;11.592;2023-05-21T00:46:08;17.80;99.90
2621;DHT22;1320;48.128;11.592;2023-05-21T00:48:36;17.70;99.90
2621;DHT22;1320;48.128;11.592;2023-05-21T00:51:03;17.70;99.90
2621;DHT22;1320;48.128;11.592;2023-05-21T00:53:29;17.70;99.90
2621;DHT22;1320;48.128;11.592;2023-05-21T00:55:56;17.70;99.90
2621;DHT22;1320;48.128;11.592;2023-05-21T00:58:22;17.70;99.90
2621;DHT22;1320;48.128;11.592;2023-05-21T01:00:48;17.60;99.90
2621;DHT22;1320;48.128;11.592;2023-05-21T01:03:13;17.60;99.90
2621;DHT22;1320;48.128;11.592;2023-05-21T01:05:41;17.60;99.90
2621;DHT22;1320;48.128;11.592;2023-05-21T01:08:09;17.60;99.90
2621;DHT22;1320;48.128;11.592;2023-05-21T01:10:35;17.60;99.90
2621;DHT22;1320;48.128;11.592;2023-05-21T01:13:01;17.60;99.90
2621;DHT22;1320;48.128;11.592;2023-05-21T01:15:27;17.50;99.90
2621;DHT22;1320;48.128;11.592;2023-05-21T01:17:53;17.50;99.90
2621;DHT22;1320;48.128;11.592;2023-05-21T01:20:21;17.50;99.90
2621;DHT22;1320;48.128;11.592;2023-05-21T01:22:54;17.50;99.90
2621;DHT22;1320;48.128;11.592;2023-05-21T01:25:24;17.40;99.90
2621;DHT22;1320;48.128;11.592;2023-05-21T01:27:50;17.40;99.90
2621;DHT22;1320;48.128;11.592;2023-05-21T01:30:17;17.40;99.90
2621;DHT22;1320;48.128;11.592;2023-05-21T01:33:02;17.40;99.90
2621;DHT22;1320;48.128;11.592;2023-05-21T01:35:34;17.30;99.90
2621;DHT22;1320;48.128;11.592;2023-05-21T01:38:27;17.30;99.90
2621;DHT22;1320;48.128;11.592;2023-05-21T01:40:58;17.30;99.90
2621;DHT22;1320;48.128;11.592;2023-05-21T01:43:30;17.30;99.90
2621;DHT22;1320;48.128;11.592;2023-05-21T01:45:58;17.30;99.90
2621;DHT22;1320;48.128;11.592;2023-05-21T01:48:28;17.30;99.90
2621;DHT22;1320;48.128;11.592;2023-05-21T01:50:59;17.30;99.90
2621;DHT22;1320;48.128;11.592;2023-05-21T01:53:26;17.20;99.90
2621;DHT22;1320;48.128;11.592;2023-05-21T01:55:52;17.20;99.90
2621;DHT22;1320;48.128;11.592;2023-05-21T01:58:19;17.20;99.90
2621;DHT22;1320;48.128;11.592;2023-05-21T02:00:45;17.20;99.90
2621;DHT22;1320;48.128;11.592;2023-05-21T02:03:12;17.10;99.80
2621;DHT22;1320;48.128;11.592;2023-05-21T02:05:39;17.10;99.90
2621;DHT22;1320;48.128;11.592;2023-05-21T02:08:05;17.10;99.80
2621;DHT22;1320;48.128;11.592;2023-05-21T02:10:33;17.10;99.80
2621;DHT22;1320;48.128;11.592;2023-05-21T02:12:59;17.10;99.70
2621;DHT22;1320;48.128;11.592;2023-05-21T02:15:25;17.10;99.70
2621;DHT22;1320;48.128;11.592;2023-05-21T02:17:50;17.10;99.60
2621;DHT22;1320;48.128;11.592;2023-05-21T02:20:17;17.00;99.70
2621;DHT22;1320;48.128;11.592;2023-05-21T02:22:45;17.00;99.70
2621;DHT22;1320;48.128;11.592;2023-05-21T02:25:12;17.00;99.60
2621;DHT22;1320;48.128;11.592;2023-05-21T02:27:39;17.00;99.50
2621;DHT22;1320;48.128;11.592;2023-05-21T02:30:08;16.90;99.70
2621;DHT22;1320;48.128;11.592;2023-05-21T02:32:34;16.90;99.70
2621;DHT22;1320;48.128;11.592;2023-05-21T02:35:01;16.80;99.60
2621;DHT22;1320;48.128;11.592;2023-05-21T02:37:28;16.80;99.70
2621;DHT22;1320;48.128;11.592;2023-05-21T02:39:54;16.80;99.80
2621;DHT22;1320;48.128;11.592;2023-05-21T02:42:23;16.80;99.70
2621;DHT22;1320;48.128;11.592;2023-05-21T02:44:49;16.80;99.60
2621;DHT22;1320;48.128;11.592;2023-05-21T02:47:16;16.80;99.60
2621;DHT22;1320;48.128;11.592;2023-05-21T02:49:42;16.80;99.60
2621;DHT22;1320;48.128;11.592;2023-05-21T02:52:07;16.80;99.90
2621;DHT22;1320;48.128;11.592;2023-05-21T02:54:33;16.70;99.60
2621;DHT22;1320;48.128;11.592;2023-05-21T02:56:59;16.70;99.50
2621;DHT22;1320;48.128;11.592;2023-05-21T02:59:25;16.70;99.60
2621;DHT22;1320;48.128;11.592;2023-05-21T03:01:51;16.70;99.70
2621;DHT22;1320;48.128;11.592;2023-05-21T03:04:16;16.70;99.70
2621;DHT22;1320;48.128;11.592;2023-05-21T03:06:42;16.70;99.70
2621;DHT22;1320;48.128;11.592;2023-05-21T03:09:09;16.70;99.80
2621;DHT22;1320;48.128;11.592;2023-05-21T03:11:35;16.60;99.80
2621;DHT22;1320;48.128;11.592;2023-05-21T03:14:01;16.60;99.80
2621;DHT22;1320;48.128;11.592;2023-05-21T03:16:26;16.60;99.90
2621;DHT22;1320;48.128;11.592;2023-05-21T03:18:54;16.50;99.80
2621;DHT22;1320;48.128;11.592;2023-05-21T03:21:20;16.50;99.90
2621;DHT22;1320;48.128;11.592;2023-05-21T03:23:48;16.50;99.90
2621;DHT22;1320;48.128;11.592;2023-05-21T03:26:13;16.50;99.90
2621;DHT22;1320;48.128;11.592;2023-05-21T03:28:39;16.40;99.90
2621;DHT22;1320;48.128;11.592;2023-05-21T03:31:06;16.40;99.90
2621;DHT22;1320;48.128;11.592;2023-05-21T03:33:31;16.40;99.90
2621;DHT22;1320;48.128;11.592;2023-05-21T03:35:57;16.40;99.90
2621;DHT22;1320;48.128;11.592;2023-05-21T03:38:22;16.40;99.90
2621;DHT22;1320;48.128;11.592;2023-05-21T03:40:48;16.40;99.90
2621;DHT22;1320;48.128;11.592;2023-05-21T03:43:14;16.30;99.80
2621;DHT22;1320;48.128;11.592;2023-05-21T03:45:39;16.30;99.90
2621;DHT22;1320;48.128;11.592;2023-05-21T03:48:05;16.30;99.90
2621;DHT22;1320;48.128;11.592;2023-05-21T03:50:31;16.30;99.90
2621;DHT22;1320;48.128;11.592;2023-05-21T03:52:57;16.30;99.90
2621;DHT22;1320;48.128;11.592;2023-05-21T03:55:22;16.30;99.90
2621;DHT22;1320;48.128;11.592;2023-05-21T03:57:48;16.20;99.90
2621;DHT22;1320;48.128;11.592;2023-05-21T04:00:14;16.20;99.90
2621;DHT22;1320;48.128;11.592;2023-05-21T04:02:39;16.20;99.90
2621;DHT22;1320;48.128;11.592;2023-05-21T04:05:05;16.30;99.90
2621;DHT22;1320;48.128;11.592;2023-05-21T04:07:31;16.30;99.90
2621;DHT22;1320;48.128;11.592;2023-05-21T04:09:57;16.30;99.90
2621;DHT22;1320;48.128;11.592;2023-05-21T04:12:22;16.30;99.90
2621;DHT22;1320;48.128;11.592;2023-05-21T04:14:48;16.30;99.90
2621;DHT22;1320;48.128;11.592;2023-05-21T04:17:14;16.30;99.90
2621;DHT22;1320;48.128;11.592;2023-05-21T04:19:39;16.30;99.90
2621;DHT22;1320;48.128;11.592;2023-05-21T04:22:05;16.30;99.90
2621;DHT22;1320;48.128;11.592;2023-05-21T04:24:31;16.30;99.90
2621;DHT22;1320;48.128;11.592;2023-05-21T04:26:56;16.30;99.90
2621;DHT22;1320;48.128;11.592;2023-05-21T04:29:26;16.30;99.90
2621;DHT22;1320;48.128;11.592;2023-05-21T04:31:52;16.30;99.90
2621;DHT22;1320;48.128;11.592;2023-05-21T04:34:17;16.30;99.90
2621;DHT22;1320;48.128;11.592;2023-05-21T04:36:46;16.40;99.90
2621;DHT22;1320;48.128;11.592;2023-05-21T04:39:12;16.40;99.90
2621;DHT22;1320;48.128;11.592;2023-05-21T04:41:39;16.50;99.90
2621;DHT22;1320;48.128;11.592;2023-05-21T04:44:07;16.50;99.90
2621;DHT22;1320;48.128;11.592;2023-05-21T04:46:33;16.50;99.90
2621;DHT22;1320;48.128;11.592;2023-05-21T04:49:03;16.50;99.90
2621;DHT22;1320;48.128;11.592;2023-05-21T04:51:31;16.50;99.90
2621;DHT22;1320;48.128;11.592;2023-05-21T04:53:57;16.50;99.90
2621;DHT22;1320;48.128;11.592;2023-05-21T04:56:23;16.60;99.90
2621;DHT22;1320;48.128;11.592;2023-05-21T04:58:53;16.60;99.90
2621;DHT22;1320;48.128;11.592;2023-05-21T05:01:19;16.60;99.90
2621;DHT22;1320;48.128;11.592;2023-05-21T05:03:47;16.60;99.90
2621;DHT22;1320;48.128;11.592;2023-05-21T05:06:13;16.70;99.90
2621;DHT22;1320;48.128;11.592;2023-05-21T05:08:39;16.70;99.90
2621;DHT22;1320;48.128;11.592;2023-05-21T05:11:05;16.80;99.90
2621;DHT22;1320;48.128;11.592;2023-05-21T05:13:30;16.80;99.90
2621;DHT22;1320;48.128;11.592;2023-05-21T05:15:56;16.80;99.90
2621;DHT22;1320;48.128;11.592;2023-05-21T05:18:22;16.90;99.90
2621;DHT22;1320;48.128;11.592;2023-05-21T05:20:47;16.90;99.90
2621;DHT22;1320;48.128;11.592;2023-05-21T05:23:13;17.00;99.90
2621;DHT22;1320;48.128;11.592;2023-05-21T05:25:39;17.00;99.90
2621;DHT22;1320;48.128;11.592;2023-05-21T05:28:05;17.10;99.90
2621;DHT22;1320;48.128;11.592;2023-05-21T05:30:31;17.10;99.90
2621;DHT22;1320;48.128;11.592;2023-05-21T05:32:57;17.20;99.90
2621;DHT22;1320;48.128;11.592;2023-05-21T05:35:23;17.30;99.90
2621;DHT22;1320;48.128;11.592;2023-05-21T05:37:48;17.30;99.90
2621;DHT22;1320;48.128;11.592;2023-05-21T05:40:14;17.30;99.90
2621;DHT22;1320;48.128;11.592;2023-05-21T05:42:40;17.40;99.90
2621;DHT22;1320;48.128;11.592;2023-05-21T05:45:06;17.50;99.90
2621;DHT22;1320;48.128;11.592;2023-05-21T05:47:32;17.50;99.90
2621;DHT22;1320;48.128;11.592;2023-05-21T05:49:57;17.50;99.90
2621;DHT22;1320;48.128;11.592;2023-05-21T05:52:23;17.60;99.90
2621;DHT22;1320;48.128;11.592;2023-05-21T05:54:48;17.70;99.90
2621;DHT22;1320;48.128;11.592;2023-05-21T05:57:14;17.70;99.90
2621;DHT22;1320;48.128;11.592;2023-05-21T05:59:40;17.80;99.90
2621;DHT22;1320;48.128;11.592;2023-05-21T06:02:06;17.90;99.90
2621;DHT22;1320;48.128;11.592;2023-05-21T06:04:31;18.00;99.90
2621;DHT22;1320;48.128;11.592;2023-05-21T06:06:57;18.10;99.90
2621;DHT22;1320;48.128;11.592;2023-05-21T06:09:24;18.20;99.90
2621;DHT22;1320;48.128;11.592;2023-05-21T06:11:50;18.40;99.60
2621;DHT22;1320;48.128;11.592;2023-05-21T06:14:15;18.50;99.40
2621;DHT22;1320;48.128;11.592;2023-05-21T06:16:41;18.60;99.30
2621;DHT22;1320;48.128;11.592;2023-05-21T06:19:07;18.70;99.20
2621;DHT22;1320;48.128;11.592;2023-05-21T06:21:32;18.80;99.00
2621;DHT22;1320;48.128;11.592;2023-05-21T06:23:58;18.90;99.50
2621;DHT22;1320;48.128;11.592;2023-05-21T06:26:24;19.00;98.90
2621;DHT22;1320;48.128;11.592;2023-05-21T06:28:49;19.10;98.90
2621;DHT22;1320;48.128;11.592;2023-05-21T06:31:15;19.20;98.90
2621;DHT22;1320;48.128;11.592;2023-05-21T06:33:41;19.40;99.00
2621;DHT22;1320;48.128;11.592;2023-05-21T06:36:06;19.50;98.50
2621;DHT22;1320;48.128;11.592;2023-05-21T06:38:32;19.70;98.30
2621;DHT22;1320;48.128;11.592;2023-05-21T06:40:58;19.80;97.90
2621;DHT22;1320;48.128;11.592;2023-05-21T06:43:24;19.90;97.40
2621;DHT22;1320;48.128;11.592;2023-05-21T06:45:49;20.10;96.90
2621;DHT22;1320;48.128;11.592;2023-05-21T06:48:15;20.20;97.10
2621;DHT22;1320;48.128;11.592;2023-05-21T06:50:42;20.30;96.70
2621;DHT22;1320;48.128;11.592;2023-05-21T06:53:08;20.50;96.50
2621;DHT22;1320;48.128;11.592;2023-05-21T06:55:34;20.60;96.40
2621;DHT22;1320;48.128;11.592;2023-05-21T06:58:00;20.80;95.90
2621;DHT22;1320;48.128;11.592;2023-05-21T07:00:26;20.90;95.80
2621;DHT22;1320;48.128;11.592;2023-05-21T07:02:52;21.10;95.80
2621;DHT22;1320;48.128;11.592;2023-05-21T07:05:17;21.10;95.10
2621;DHT22;1320;48.128;11.592;2023-05-21T07:07:43;21.20;94.90
2621;DHT22;1320;48.128;11.592;2023-05-21T07:10:09;21.30;94.90
2621;DHT22;1320;48.128;11.592;2023-05-21T07:12:35;21.40;94.60
2621;DHT22;1320;48.128;11.592;2023-05-21T07:15:03;21.50;94.40
2621;DHT22;1320;48.128;11.592;2023-05-21T07:17:29;21.60;94.30
2621;DHT22;1320;48.128;11.592;2023-05-21T07:19:55;21.60;94.10
2621;DHT22;1320;48.128;11.592;2023-05-21T07:22:20;21.80;94.00
2621;DHT22;1320;48.128;11.592;2023-05-21T07:24:46;21.80;93.90
2621;DHT22;1320;48.128;11.592;2023-05-21T07:27:12;21.90;93.90
2621;DHT22;1320;48.128;11.592;2023-05-21T07:29:37;22.00;93.70
2621;DHT22;1320;48.128;11.592;2023-05-21T07:32:04;22.00;93.30
2621;DHT22;1320;48.128;11.592;2023-05-21T07:34:30;22.00;93.00
2621;DHT22;1320;48.128;11.592;2023-05-21T07:36:55;22.00;93.20
2621;DHT22;1320;48.128;11.592;2023-05-21T07:39:21;22.00;93.10
2621;DHT22;1320;48.128;11.592;2023-05-21T07:41:47;22.00;92.60
2621;DHT22;1320;48.128;11.592;2023-05-21T07:44:13;21.90;92.60
2621;DHT22;1320;48.128;11.592;2023-05-21T07:46:38;21.90;92.70
2621;DHT22;1320;48.128;11.592;2023-05-21T07:49:04;21.90;92.80
2621;DHT22;1320;48.128;11.592;2023-05-21T07:51:29;21.90;92.80
2621;DHT22;1320;48.128;11.592;2023-05-21T07:53:55;22.00;92.90
2621;DHT22;1320;48.128;11.592;2023-05-21T07:56:21;22.00;92.90
2621;DHT22;1320;48.128;11.592;2023-05-21T07:58:47;22.00;92.90
2621;DHT22;1320;48.128;11.592;2023-05-21T08:01:13;22.00;92.90
2621;DHT22;1320;48.128;11.592;2023-05-21T08:03:38;22.00;93.00
2621;DHT22;1320;48.128;11.592;2023-05-21T08:06:04;22.00;93.20
2621;DHT22;1320;48.128;11.592;2023-05-21T08:08:30;22.00;93.30
2621;DHT22;1320;48.128;11.592;2023-05-21T08:10:56;22.00;93.60
2621;DHT22;1320;48.128;11.592;2023-05-21T08:13:22;22.10;93.60
2621;DHT22;1320;48.128;11.592;2023-05-21T08:15:48;22.20;93.60
2621;DHT22;1320;48.128;11.592;2023-05-21T08:18:13;22.20;93.60
2621;DHT22;1320;48.128;11.592;2023-05-21T08:20:39;22.30;94.10
2621;DHT22;1320;48.128;11.592;2023-05-21T08:23:05;22.50;93.70
2621;DHT22;1320;48.128;11.592;2023-05-21T08:25:31;22.60;93.70
2621;DHT22;1320;48.128;11.592;2023-05-21T08:27:57;22.70;93.70
2621;DHT22;1320;48.128;11.592;2023-05-21T08:30:22;22.70;93.80
2621;DHT22;1320;48.128;11.592;2023-05-21T08:32:48;22.80;93.80
2621;DHT22;1320;48.128;11.592;2023-05-21T08:35:14;22.90;94.00
2621;DHT22;1320;48.128;11.592;2023-05-21T08:37:40;22.90;94.00
2621;DHT22;1320;48.128;11.592;2023-05-21T08:40:06;23.00;94.00
2621;DHT22;1320;48.128;11.592;2023-05-21T08:42:45;23.10;94.10
2621;DHT22;1320;48.128;11.592;2023-05-21T08:45:12;23.10;93.80
2621;DHT22;1320;48.128;11.592;2023-05-21T08:47:41;23.20;93.80
2621;DHT22;1320;48.128;11.592;2023-05-21T08:50:09;23.30;93.90
2621;DHT22;1320;48.128;11.592;2023-05-21T08:52:35;23.30;93.90
2621;DHT22;1320;48.128;11.592;2023-05-21T08:55:03;23.40;94.10
2621;DHT22;1320;48.128;11.592;2023-05-21T08:57:30;23.50;94.20
2621;DHT22;1320;48.128;11.592;2023-05-21T08:59:56;23.60;94.10
2621;DHT22;1320;48.128;11.592;2023-05-21T09:02:22;23.70;94.10
2621;DHT22;1320;48.128;11.592;2023-05-21T09:04:50;23.90;94.30
2621;DHT22;1320;48.128;11.592;2023-05-21T09:07:25;24.10;94.20
2621;DHT22;1320;48.128;11.592;2023-05-21T09:12:23;24.50;93.90
2621;DHT22;1320;48.128;11.592;2023-05-21T09:14:50;24.60;94.00
2621;DHT22;1320;48.128;11.592;2023-05-21T09:17:16;24.70;93.80
2621;DHT22;1320;48.128;11.592;2023-05-21T09:20:13;24.80;94.20
2621;DHT22;1320;48.128;11.592;2023-05-21T09:22:44;25.00;94.10
2621;DHT22;1320;48.128;11.592;2023-05-21T09:25:11;25.10;93.90
2621;DHT22;1320;48.128;11.592;2023-05-21T09:27:37;25.30;93.90
2621;DHT22;1320;48.128;11.592;2023-05-21T09:30:04;25.50;93.90
2621;DHT22;1320;48.128;11.592;2023-05-21T09:32:33;25.70;93.90
2621;DHT22;1320;48.128;11.592;2023-05-21T09:35:05;26.00;93.70
2621;DHT22;1320;48.128;11.592;2023-05-21T09:37:36;26.30;93.10
2621;DHT22;1320;48.128;11.592;2023-05-21T09:40:09;26.60;93.60
2621;DHT22;1320;48.128;11.592;2023-05-21T09:42:40;27.00;92.70
2621;DHT22;1320;48.128;11.592;2023-05-21T09:45:10;27.30;91.90
2621;DHT22;1320;48.128;11.592;2023-05-21T09:47:40;27.50;91.00
2621;DHT22;1320;48.128;11.592;2023-05-21T09:50:17;27.60;92.10
2621;DHT22;1320;48.128;11.592;2023-05-21T09:52:43;27.80;91.50
2621;DHT22;1320;48.128;11.592;2023-05-21T09:55:10;27.90;91.20
2621;DHT22;1320;48.128;11.592;2023-05-21T09:57:40;27.90;90.10
2621;DHT22;1320;48.128;11.592;2023-05-21T10:00:07;27.90;88.80
2621;DHT22;1320;48.128;11.592;2023-05-21T10:02:36;28.20;85.40
2621;DHT22;1320;48.128;11.592;2023-05-21T10:05:07;28.70;83.50
2621;DHT22;1320;48.128;11.592;2023-05-21T10:07:34;29.20;78.40
2621;DHT22;1320;48.128;11.592;2023-05-21T10:10:02;29.50;75.40
2621;DHT22;1320;48.128;11.592;2023-05-21T10:12:29;29.90;74.00
2621;DHT22;1320;48.128;11.592;2023-05-21T10:14:59;30.10;74.20
2621;DHT22;1320;48.128;11.592;2023-05-21T10:17:29;30.20;73.80
2621;DHT22;1320;48.128;11.592;2023-05-21T10:19:55;30.50;74.00
2621;DHT22;1320;48.128;11.592;2023-05-21T10:22:24;30.70;72.50
2621;DHT22;1320;48.128;11.592;2023-05-21T10:24:53;30.90;73.30
2621;DHT22;1320;48.128;11.592;2023-05-21T10:27:19;31.20;71.60
2621;DHT22;1320;48.128;11.592;2023-05-21T10:29:48;31.50;70.70
2621;DHT22;1320;48.128;11.592;2023-05-21T10:32:14;31.70;69.70
2621;DHT22;1320;48.128;11.592;2023-05-21T10:34:45;31.90;69.50
2621;DHT22;1320;48.128;11.592;2023-05-21T10:37:12;32.10;67.10
2621;DHT22;1320;48.128;11.592;2023-05-21T10:39:38;32.10;65.80
2621;DHT22;1320;48.128;11.592;2023-05-21T10:42:51;32.10;66.70
2621;DHT22;1320;48.128;11.592;2023-05-21T10:56:16;31.50;66.40
2621;DHT22;1320;48.128;11.592;2023-05-21T10:58:41;31.30;66.70
2621;DHT22;1320;48.128;11.592;2023-05-21T11:01:09;31.00;66.80
2621;DHT22;1320;48.128;11.592;2023-05-21T11:03:36;30.80;67.40
2621;DHT22;1320;48.128;11.592;2023-05-21T11:06:02;30.60;68.70
2621;DHT22;1320;48.128;11.592;2023-05-21T11:08:31;30.40;69.30
2621;DHT22;1320;48.128;11.592;2023-05-21T11:11:00;30.20;68.00
2621;DHT22;1320;48.128;11.592;2023-05-21T11:13:27;30.20;67.70
2621;DHT22;1320;48.128;11.592;2023-05-21T11:21:09;30.30;66.90
2621;DHT22;1320;48.128;11.592;2023-05-21T11:23:53;30.40;66.90
2621;DHT22;1320;48.128;11.592;2023-05-21T11:27:08;30.60;67.60
2621;DHT22;1320;48.128;11.592;2023-05-21T11:29:10;30.70;66.20
2621;DHT22;1320;48.128;11.592;2023-05-21T11:31:36;30.80;65.80
2621;DHT22;1320;48.128;11.592;2023-05-21T11:34:19;30.70;66.20
2621;DHT22;1320;48.128;11.592;2023-05-21T11:36:48;30.80;63.70
2621;DHT22;1320;48.128;11.592;2023-05-21T11:39:14;31.00;64.00
2621;DHT22;1320;48.128;11.592;2023-05-21T11:41:58;31.10;65.00
2621;DHT22;1320;48.128;11.592;2023-05-21T11:44:44;31.20;67.40
2621;DHT22;1320;48.128;11.592;2023-05-21T11:47:12;31.30;64.30
2621;DHT22;1320;48.128;11.592;2023-05-21T11:49:39;31.20;64.50
2621;DHT22;1320;48.128;11.592;2023-05-21T11:52:06;31.30;64.60
2621;DHT22;1320;48.128;11.592;2023-05-21T11:54:37;31.30;64.30
2621;DHT22;1320;48.128;11.592;2023-05-21T11:57:07;31.40;61.40
2621;DHT22;1320;48.128;11.592;2023-05-21T11:59:33;31.50;60.90
2621;DHT22;1320;48.128;11.592;2023-05-21T12:02:00;31.70;59.90
2621;DHT22;1320;48.128;11.592;2023-05-21T12:04:33;31.70;61.30
2621;DHT22;1320;48.128;11.592;2023-05-21T12:07:05;31.80;60.00
2621;DHT22;1320;48.128;11.592;2023-05-21T12:12:11;32.10;59.90
2621;DHT22;1320;48.128;11.592;2023-05-21T12:14:43;32.30;60.00
2621;DHT22;1320;48.128;11.592;2023-05-21T12:17:09;32.40;59.60
2621;DHT22;1320;48.128;11.592;2023-05-21T12:19:37;32.50;60.60
2621;DHT22;1320;48.128;11.592;2023-05-21T12:22:04;32.40;60.80
2621;DHT22;1320;48.128;11.592;2023-05-21T12:24:31;32.30;61.50
2621;DHT22;1320;48.128;11.592;2023-05-21T12:27:01;32.20;60.00
2621;DHT22;1320;48.128;11.592;2023-05-21T12:29:30;32.20;60.10
2621;DHT22;1320;48.128;11.592;2023-05-21T12:32:00;32.00;60.60
2621;DHT22;1320;48.128;11.592;2023-05-21T12:34:49;32.10;60.40
2621;DHT22;1320;48.128;11.592;2023-05-21T12:37:25;32.30;59.30
2621;DHT22;1320;48.128;11.592;2023-05-21T12:39:52;32.50;58.00
2621;DHT22;1320;48.128;11.592;2023-05-21T12:42:29;32.50;59.60
2621;DHT22;1320;48.128;11.592;2023-05-21T12:44:55;32.60;58.20
2621;DHT22;1320;48.128;11.592;2023-05-21T12:47:25;32.70;57.60
2621;DHT22;1320;48.128;11.592;2023-05-21T12:49:56;32.80;61.00
2621;DHT22;1320;48.128;11.592;2023-05-21T12:52:25;33.00;59.50
2621;DHT22;1320;48.128;11.592;2023-05-21T12:54:56;33.10;58.50
2621;DHT22;1320;48.128;11.592;2023-05-21T12:57:25;33.30;55.60
2621;DHT22;1320;48.128;11.592;2023-05-21T12:59:59;33.40;55.00
2621;DHT22;1320;48.128;11.592;2023-05-21T13:07:21;33.20;57.30
2621;DHT22;1320;48.128;11.592;2023-05-21T13:09:46;33.20;56.90
2621;DHT22;1320;48.128;11.592;2023-05-21T13:12:13;33.20;56.10
2621;DHT22;1320;48.128;11.592;2023-05-21T13:14:38;33.40;57.00
2621;DHT22;1320;48.128;11.592;2023-05-21T13:17:05;33.50;56.50
2621;DHT22;1320;48.128;11.592;2023-05-21T13:19:30;33.80;54.60
2621;DHT22;1320;48.128;11.592;2023-05-21T13:21:56;33.80;54.60
2621;DHT22;1320;48.128;11.592;2023-05-21T13:24:22;33.80;54.50
2621;DHT22;1320;48.128;11.592;2023-05-21T13:26:47;33.70;54.30
2621;DHT22;1320;48.128;11.592;2023-05-21T13:29:13;33.60;54.40
2621;DHT22;1320;48.128;11.592;2023-05-21T13:31:43;33.50;54.80
2621;DHT22;1320;48.128;11.592;2023-05-21T13:34:11;33.50;54.90
2621;DHT22;1320;48.128;11.592;2023-05-21T13:36:37;33.50;55.30
2621;DHT22;1320;48.128;11.592;2023-05-21T13:39:03;33.70;56.80
2621;DHT22;1320;48.128;11.592;2023-05-21T13:41:29;33.60;55.10
2621;DHT22;1320;48.128;11.592;2023-05-21T13:43:55;33.50;55.50
2621;DHT22;1320;48.128;11.592;2023-05-21T13:46:22;33.20;57.20
2621;DHT22;1320;48.128;11.592;2023-05-21T13:48:47;33.10;56.80
2621;DHT22;1320;48.128;11.592;2023-05-21T13:51:13;33.00;56.20
2621;DHT22;1320;48.128;11.592;2023-05-21T13:53:38;33.00;57.30
2621;DHT22;1320;48.128;11.592;2023-05-21T13:56:04;33.00;57.70
2621;DHT22;1320;48.128;11.592;2023-05-21T13:58:30;33.00;57.20
2621;DHT22;1320;48.128;11.592;2023-05-21T14:01:00;32.90;56.70
2621;DHT22;1320;48.128;11.592;2023-05-21T14:03:26;32.70;57.20
2621;DHT22;1320;48.128;11.592;2023-05-21T14:05:52;32.50;57.50
2621;DHT22;1320;48.128;11.592;2023-05-21T14:08:19;32.30;57.50
2621;DHT22;1320;48.128;11.592;2023-05-21T14:10:45;32.10;57.50
2621;DHT22;1320;48.128;11.592;2023-05-21T14:13:12;32.10;57.90
2621;DHT22;1320;48.128;11.592;2023-05-21T14:15:38;32.00;57.60
2621;DHT22;1320;48.128;11.592;2023-05-21T14:18:04;32.00;58.00
2621;DHT22;1320;48.128;11.592;2023-05-21T14:20:32;32.10;57.60
2621;DHT22;1320;48.128;11.592;2023-05-21T14:22:58;32.10;57.60
2621;DHT22;1320;48.128;11.592;2023-05-21T14:25:24;32.20;58.40
2621;DHT22;1320;48.128;11.592;2023-05-21T14:27:49;32.40;59.20
2621;DHT22;1320;48.128;11.592;2023-05-21T14:30:15;32.50;59.40
2621;DHT22;1320;48.128;11.592;2023-05-21T14:32:41;32.50;59.00
2621;DHT22;1320;48.128;11.592;2023-05-21T14:35:06;32.70;58.80
2621;DHT22;1320;48.128;11.592;2023-05-21T14:37:32;32.70;59.00
2621;DHT22;1320;48.128;11.592;2023-05-21T14:39:58;32.80;58.90
2621;DHT22;1320;48.128;11.592;2023-05-21T14:42:23;33.00;58.60
2621;DHT22;1320;48.128;11.592;2023-05-21T14:44:49;33.10;58.40
2621;DHT22;1320;48.128;11.592;2023-05-21T14:47:15;33.20;57.50
2621;DHT22;1320;48.128;11.592;2023-05-21T14:49:40;33.20;57.50
2621;DHT22;1320;48.128;11.592;2023-05-21T14:52:06;33.40;57.20
2621;DHT22;1320;48.128;11.592;2023-05-21T14:54:32;33.30;56.90
2621;DHT22;1320;48.128;11.592;2023-05-21T14:56:57;33.30;56.40
2621;DHT22;1320;48.128;11.592;2023-05-21T14:59:23;33.20;56.20
2621;DHT22;1320;48.128;11.592;2023-05-21T15:01:49;33.20;56.40
2621;DHT22;1320;48.128;11.592;2023-05-21T15:04:15;33.00;57.20
2621;DHT22;1320;48.128;11.592;2023-05-21T15:06:40;32.90;57.10
2621;DHT22;1320;48.128;11.592;2023-05-21T15:09:06;32.80;57.60
2621;DHT22;1320;48.128;11.592;2023-05-21T15:11:32;32.60;57.90
2621;DHT22;1320;48.128;11.592;2023-05-21T15:13:58;32.50;57.80
2621;DHT22;1320;48.128;11.592;2023-05-21T15:16:24;32.50;57.40
2621;DHT22;1320;48.128;11.592;2023-05-21T15:18:49;32.50;57.50
2621;DHT22;1320;48.128;11.592;2023-05-21T15:21:15;32.60;57.60
2621;DHT22;1320;48.128;11.592;2023-05-21T15:23:41;32.60;57.10
2621;DHT22;1320;48.128;11.592;2023-05-21T15:26:07;32.50;57.20
2621;DHT22;1320;48.128;11.592;2023-05-21T15:28:33;32.30;56.90
2621;DHT22;1320;48.128;11.592;2023-05-21T15:30:59;32.20;56.80
2621;DHT22;1320;48.128;11.592;2023-05-21T15:33:25;32.10;56.90
2621;DHT22;1320;48.128;11.592;2023-05-21T15:35:51;32.00;57.20
2621;DHT22;1320;48.128;11.592;2023-05-21T15:38:16;31.90;57.30
2621;DHT22;1320;48.128;11.592;2023-05-21T15:40:42;31.80;57.30
2621;DHT22;1320;48.128;11.592;2023-05-21T15:43:08;31.80;57.90
2621;DHT22;1320;48.128;11.592;2023-05-21T15:45:34;31.80;58.10
2621;DHT22;1320;48.128;11.592;2023-05-21T15:47:59;31.90;58.30
2621;DHT22;1320;48.128;11.592;2023-05-21T15:50:25;32.00;58.80
2621;DHT22;1320;48.128;11.592;2023-05-21T15:52:51;32.00;58.00
2621;DHT22;1320;48.128;11.592;2023-05-21T15:55:16;32.00;57.00
2621;DHT22;1320;48.128;11.592;2023-05-21T15:57:42;31.90;56.90
2621;DHT22;1320;48.128;11.592;2023-05-21T16:00:08;31.90;56.90
2621;DHT22;1320;48.128;11.592;2023-05-21T16:02:35;31.90;56.90
2621;DHT22;1320;48.128;11.592;2023-05-21T16:05:01;31.90;56.70
2621;DHT22;1320;48.128;11.592;2023-05-21T16:07:26;31.90;56.90
2621;DHT22;1320;48.128;11.592;2023-05-21T16:09:52;31.80;57.20
2621;DHT22;1320;48.128;11.592;2023-05-21T16:12:18;31.80;57.20